sensor_id;sensor_type;location;lat;lon;timestamp;temperature;humidity
63013;DHT22;62113;45.624;11.700;2022-11-24T00:01:21;8.00;69.20
63013;DHT22;62113;45.624;11.700;2022-11-24T00:03:53;8.00;69.30
63013;DHT22;62113;45.624;11.700;2022-11-24T00:06:19;8.00;69.20
63013;DHT22;62113;45.624;11.700;2022-11-24T00:08:45;8.00;69.10
63013;DHT22;62113;45.624;11.700;2022-11-24T00:11:17;8.00;69.00
63013;DHT22;62113;45.624;11.700;2022-11-24T00:13:43;7.90;69.10
63013;DHT22;62113;45.624;11.700;2022-11-24T00:16:11;7.90;69.10
63013;DHT22;62113;45.624;11.700;2022-11-24T00:18:38;7.80;69.20
63013;DHT22;62113;45.624;11.700;2022-11-24T00:21:05;7.80;69.20
63013;DHT22;62113;45.624;11.700;2022-11-24T00:23:31;7.90;69.30
63013;DHT22;62113;45.624;11.700;2022-11-24T00:26:08;7.80;69.30
63013;DHT22;62113;45.624;11.700;2022-11-24T00:28:35;7.80;69.30
63013;DHT22;62113;45.624;11.700;2022-11-24T00:31:02;7.90;69.30
63013;DHT22;62113;45.624;11.700;2022-11-24T00:33:27;7.80;69.30
63013;DHT22;62113;45.624;11.700;2022-11-24T00:36:02;7.80;69.20
63013;DHT22;62113;45.624;11.700;2022-11-24T00:38:28;7.80;69.20
63013;DHT22;62113;45.624;11.700;2022-11-24T00:40:53;7.80;69.10
63013;DHT22;62113;45.624;11.700;2022-11-24T00:43:19;7.80;69.20
63013;DHT22;62113;45.624;11.700;2022-11-24T00:45:44;7.80;69.10
63013;DHT22;62113;45.624;11.700;2022-11-24T00:48:10;7.80;69.10
63013;DHT22;62113;45.624;11.700;2022-11-24T00:50:36;7.70;69.10
63013;DHT22;62113;45.624;11.700;2022-11-24T00:53:01;7.70;69.30
63013;DHT22;62113;45.624;11.700;2022-11-24T00:55:27;7.70;69.40
63013;DHT22;62113;45.624;11.700;2022-11-24T00:57:53;7.70;69.50
63013;DHT22;62113;45.624;11.700;2022-11-24T01:00:18;7.70;69.50
63013;DHT22;62113;45.624;11.700;2022-11-24T01:02:44;7.60;69.70
63013;DHT22;62113;45.624;11.700;2022-11-24T01:05:10;7.60;69.50
63013;DHT22;62113;45.624;11.700;2022-11-24T01:07:36;7.60;69.50
63013;DHT22;62113;45.624;11.700;2022-11-24T01:10:02;7.60;69.50
63013;DHT22;62113;45.624;11.700;2022-11-24T01:12:27;7.60;69.60
63013;DHT22;62113;45.624;11.700;2022-11-24T01:14:53;7.50;69.60
63013;DHT22;62113;45.624;11.700;2022-11-24T01:17:19;7.60;69.60
63013;DHT22;62113;45.624;11.700;2022-11-24T01:19:44;7.50;69.60
63013;DHT22;62113;45.624;11.700;2022-11-24T01:22:14;7.50;69.60
63013;DHT22;62113;45.624;11.700;2022-11-24T01:24:39;7.50;69.50
63013;DHT22;62113;45.624;11.700;2022-11-24T01:27:05;7.40;69.60
63013;DHT22;62113;45.624;11.700;2022-11-24T01:29:31;7.40;69.60
63013;DHT22;62113;45.624;11.700;2022-11-24T01:31:57;7.40;69.70
63013;DHT22;62113;45.624;11.700;2022-11-24T01:34:22;7.40;69.70
63013;DHT22;62113;45.624;11.700;2022-11-24T01:36:48;7.40;69.70
63013;DHT22;62113;45.624;11.700;2022-11-24T01:39:14;7.40;69.80
63013;DHT22;62113;45.624;11.700;2022-11-24T01:41:39;7.30;69.80
63013;DHT22;62113;45.624;11.700;2022-11-24T01:44:25;7.30;69.80
63013;DHT22;62113;45.624;11.700;2022-11-24T01:47:06;7.30;69.80
63013;DHT22;62113;45.624;11.700;2022-11-24T01:49:43;7.30;69.90
63013;DHT22;62113;45.624;11.700;2022-11-24T01:52:21;7.30;69.90
63013;DHT22;62113;45.624;11.700;2022-11-24T01:54:55;7.30;69.90
63013;DHT22;62113;45.624;11.700;2022-11-24T01:57:43;7.30;69.80
63013;DHT22;62113;45.624;11.700;2022-11-24T02:00:12;7.20;69.80
63013;DHT22;62113;45.624;11.700;2022-11-24T02:02:38;7.30;69.80
63013;DHT22;62113;45.624;11.700;2022-11-24T02:05:09;7.30;69.90
63013;DHT22;62113;45.624;11.700;2022-11-24T02:07:36;7.30;69.90
63013;DHT22;62113;45.624;11.700;2022-11-24T02:10:05;7.30;69.80
63013;DHT22;62113;45.624;11.700;2022-11-24T02:12:33;7.20;69.90
63013;DHT22;62113;45.624;11.700;2022-11-24T02:15:01;7.20;70.00
63013;DHT22;62113;45.624;11.700;2022-11-24T02:17:26;7.20;69.90
63013;DHT22;62113;45.624;11.700;2022-11-24T02:20:00;7.20;69.90
63013;DHT22;62113;45.624;11.700;2022-11-24T02:22:47;7.20;69.90
63013;DHT22;62113;45.624;11.700;2022-11-24T02:25:22;7.20;69.90
63013;DHT22;62113;45.624;11.700;2022-11-24T02:27:51;7.20;69.90
63013;DHT22;62113;45.624;11.700;2022-11-24T02:30:18;7.20;69.90
63013;DHT22;62113;45.624;11.700;2022-11-24T02:32:43;7.20;69.90
63013;DHT22;62113;45.624;11.700;2022-11-24T02:35:10;7.20;69.80
63013;DHT22;62113;45.624;11.700;2022-11-24T02:37:36;7.20;69.80
63013;DHT22;62113;45.624;11.700;2022-11-24T02:40:02;7.20;69.80
63013;DHT22;62113;45.624;11.700;2022-11-24T02:42:31;7.20;69.80
63013;DHT22;62113;45.624;11.700;2022-11-24T02:44:59;7.20;69.90
63013;DHT22;62113;45.624;11.700;2022-11-24T02:47:25;7.20;69.90
63013;DHT22;62113;45.624;11.700;2022-11-24T02:49:51;7.20;70.00
63013;DHT22;62113;45.624;11.700;2022-11-24T02:52:17;7.20;69.90
63013;DHT22;62113;45.624;11.700;2022-11-24T02:54:42;7.20;69.90
63013;DHT22;62113;45.624;11.700;2022-11-24T02:57:08;7.10;69.90
63013;DHT22;62113;45.624;11.700;2022-11-24T02:59:34;7.10;69.80
63013;DHT22;62113;45.624;11.700;2022-11-24T03:02:00;7.10;69.80
63013;DHT22;62113;45.624;11.700;2022-11-24T03:04:25;7.10;69.80
63013;DHT22;62113;45.624;11.700;2022-11-24T03:06:51;7.10;69.90
63013;DHT22;62113;45.624;11.700;2022-11-24T03:09:17;7.00;69.90
63013;DHT22;62113;45.624;11.700;2022-11-24T03:11:42;7.00;69.80
63013;DHT22;62113;45.624;11.700;2022-11-24T03:14:08;7.00;69.80
63013;DHT22;62113;45.624;11.700;2022-11-24T03:16:34;7.00;69.80
63013;DHT22;62113;45.624;11.700;2022-11-24T03:19:00;7.00;69.90
63013;DHT22;62113;45.624;11.700;2022-11-24T03:21:26;7.00;69.80
63013;DHT22;62113;45.624;11.700;2022-11-24T03:23:52;6.90;69.80
63013;DHT22;62113;45.624;11.700;2022-11-24T03:26:19;6.90;69.90
63013;DHT22;62113;45.624;11.700;2022-11-24T03:28:45;6.90;69.80
63013;DHT22;62113;45.624;11.700;2022-11-24T03:31:11;6.80;69.80
63013;DHT22;62113;45.624;11.700;2022-11-24T03:33:37;6.80;69.80
63013;DHT22;62113;45.624;11.700;2022-11-24T03:36:04;6.80;69.80
63013;DHT22;62113;45.624;11.700;2022-11-24T03:38:30;6.80;69.90
63013;DHT22;62113;45.624;11.700;2022-11-24T03:40:56;6.80;69.90
63013;DHT22;62113;45.624;11.700;2022-11-24T03:43:21;6.70;69.90
63013;DHT22;62113;45.624;11.700;2022-11-24T03:45:48;6.80;70.00
63013;DHT22;62113;45.624;11.700;2022-11-24T03:48:17;6.70;70.00
63013;DHT22;62113;45.624;11.700;2022-11-24T03:50:52;6.70;70.00
63013;DHT22;62113;45.624;11.700;2022-11-24T03:53:18;6.70;70.10
63013;DHT22;62113;45.624;11.700;2022-11-24T03:55:44;6.70;70.10
63013;DHT22;62113;45.624;11.700;2022-11-24T03:58:10;6.70;70.00
63013;DHT22;62113;45.624;11.700;2022-11-24T04:00:35;6.70;70.10
63013;DHT22;62113;45.624;11.700;2022-11-24T04:03:01;6.70;70.20
63013;DHT22;62113;45.624;11.700;2022-11-24T04:05:26;6.70;70.20
63013;DHT22;62113;45.624;11.700;2022-11-24T04:07:55;6.70;70.10
63013;DHT22;62113;45.624;11.700;2022-11-24T04:10:23;6.70;70.20
63013;DHT22;62113;45.624;11.700;2022-11-24T04:12:48;6.70;70.20
63013;DHT22;62113;45.624;11.700;2022-11-24T04:15:18;6.70;70.30
63013;DHT22;62113;45.624;11.700;2022-11-24T04:17:46;6.70;70.20
63013;DHT22;62113;45.624;11.700;2022-11-24T04:20:12;6.70;70.10
63013;DHT22;62113;45.624;11.700;2022-11-24T04:22:38;6.70;70.20
63013;DHT22;62113;45.624;11.700;2022-11-24T04:25:04;6.70;70.30
63013;DHT22;62113;45.624;11.700;2022-11-24T04:27:34;6.70;70.30
63013;DHT22;62113;45.624;11.700;2022-11-24T04:30:00;6.70;70.20
63013;DHT22;62113;45.624;11.700;2022-11-24T04:32:25;6.70;70.10
63013;DHT22;62113;45.624;11.700;2022-11-24T04:34:51;6.60;70.00
63013;DHT22;62113;45.624;11.700;2022-11-24T04:37:17;6.70;70.00
63013;DHT22;62113;45.624;11.700;2022-11-24T04:39:43;6.60;70.00
63013;DHT22;62113;45.624;11.700;2022-11-24T04:42:09;6.50;70.00
63013;DHT22;62113;45.624;11.700;2022-11-24T04:44:35;6.50;70.00
63013;DHT22;62113;45.624;11.700;2022-11-24T04:47:00;6.50;70.10
63013;DHT22;62113;45.624;11.700;2022-11-24T04:49:26;6.50;70.10
63013;DHT22;62113;45.624;11.700;2022-11-24T04:51:52;6.50;70.00
63013;DHT22;62113;45.624;11.700;2022-11-24T04:54:17;6.40;70.00
63013;DHT22;62113;45.624;11.700;2022-11-24T04:56:43;6.40;70.00
63013;DHT22;62113;45.624;11.700;2022-11-24T04:59:13;6.40;70.00
63013;DHT22;62113;45.624;11.700;2022-11-24T05:01:41;6.40;70.00
63013;DHT22;62113;45.624;11.700;2022-11-24T05:04:12;6.30;70.10
63013;DHT22;62113;45.624;11.700;2022-11-24T05:06:38;6.30;70.00
63013;DHT22;62113;45.624;11.700;2022-11-24T05:09:05;6.30;70.10
63013;DHT22;62113;45.624;11.700;2022-11-24T05:11:31;6.30;70.10
63013;DHT22;62113;45.624;11.700;2022-11-24T05:13:57;6.20;70.20
63013;DHT22;62113;45.624;11.700;2022-11-24T05:16:22;6.20;70.20
63013;DHT22;62113;45.624;11.700;2022-11-24T05:18:48;6.20;70.10
63013;DHT22;62113;45.624;11.700;2022-11-24T05:21:14;6.20;70.10
63013;DHT22;62113;45.624;11.700;2022-11-24T05:23:39;6.20;70.20
63013;DHT22;62113;45.624;11.700;2022-11-24T05:26:05;6.20;70.20
63013;DHT22;62113;45.624;11.700;2022-11-24T05:28:31;6.20;70.20
63013;DHT22;62113;45.624;11.700;2022-11-24T05:31:00;6.20;70.30
63013;DHT22;62113;45.624;11.700;2022-11-24T05:33:27;6.20;70.30
63013;DHT22;62113;45.624;11.700;2022-11-24T05:35:53;6.20;70.30
63013;DHT22;62113;45.624;11.700;2022-11-24T05:38:19;6.20;70.20
63013;DHT22;62113;45.624;11.700;2022-11-24T05:40:46;6.20;70.20
63013;DHT22;62113;45.624;11.700;2022-11-24T05:43:13;6.20;70.10
63013;DHT22;62113;45.624;11.700;2022-11-24T05:45:39;6.20;70.20
63013;DHT22;62113;45.624;11.700;2022-11-24T05:48:05;6.10;70.30
63013;DHT22;62113;45.624;11.700;2022-11-24T05:50:32;6.10;70.20
63013;DHT22;62113;45.624;11.700;2022-11-24T05:53:08;6.10;70.30
63013;DHT22;62113;45.624;11.700;2022-11-24T05:55:34;6.10;70.40
63013;DHT22;62113;45.624;11.700;2022-11-24T05:58:02;6.10;70.40
63013;DHT22;62113;45.624;11.700;2022-11-24T06:00:29;6.20;70.40
63013;DHT22;62113;45.624;11.700;2022-11-24T06:02:56;6.20;70.40
63013;DHT22;62113;45.624;11.700;2022-11-24T06:05:23;6.20;70.30
63013;DHT22;62113;45.624;11.700;2022-11-24T06:07:49;6.20;70.30
63013;DHT22;62113;45.624;11.700;2022-11-24T06:10:16;6.20;70.30
63013;DHT22;62113;45.624;11.700;2022-11-24T06:12:41;6.20;70.30
63013;DHT22;62113;45.624;11.700;2022-11-24T06:15:07;6.20;70.30
63013;DHT22;62113;45.624;11.700;2022-11-24T06:17:33;6.10;70.30
63013;DHT22;62113;45.624;11.700;2022-11-24T06:19:59;6.10;70.30
63013;DHT22;62113;45.624;11.700;2022-11-24T06:22:25;6.10;70.40
63013;DHT22;62113;45.624;11.700;2022-11-24T06:24:50;6.10;70.40
63013;DHT22;62113;45.624;11.700;2022-11-24T06:27:16;6.10;70.50
63013;DHT22;62113;45.624;11.700;2022-11-24T06:29:42;6.10;70.50
63013;DHT22;62113;45.624;11.700;2022-11-24T06:32:08;6.10;70.50
63013;DHT22;62113;45.624;11.700;2022-11-24T06:34:34;6.10;70.40
63013;DHT22;62113;45.624;11.700;2022-11-24T06:37:01;6.10;70.50
63013;DHT22;62113;45.624;11.700;2022-11-24T06:39:26;6.10;70.40
63013;DHT22;62113;45.624;11.700;2022-11-24T06:41:52;6.10;70.40
63013;DHT22;62113;45.624;11.700;2022-11-24T06:44:18;6.10;70.30
63013;DHT22;62113;45.624;11.700;2022-11-24T06:46:44;6.10;70.30
63013;DHT22;62113;45.624;11.700;2022-11-24T06:49:09;6.10;70.30
63013;DHT22;62113;45.624;11.700;2022-11-24T06:51:35;6.10;70.40
63013;DHT22;62113;45.624;11.700;2022-11-24T06:54:04;6.10;70.40
63013;DHT22;62113;45.624;11.700;2022-11-24T06:56:30;6.10;70.40
63013;DHT22;62113;45.624;11.700;2022-11-24T06:58:55;6.10;70.40
63013;DHT22;62113;45.624;11.700;2022-11-24T07:01:23;6.10;70.40
63013;DHT22;62113;45.624;11.700;2022-11-24T07:03:50;6.20;70.40
63013;DHT22;62113;45.624;11.700;2022-11-24T07:06:17;6.10;70.40
63013;DHT22;62113;45.624;11.700;2022-11-24T07:08:43;6.20;70.40
63013;DHT22;62113;45.624;11.700;2022-11-24T07:11:11;6.20;70.30
63013;DHT22;62113;45.624;11.700;2022-11-24T07:13:37;6.20;70.20
63013;DHT22;62113;45.624;11.700;2022-11-24T07:18:43;6.20;70.40
63013;DHT22;62113;45.624;11.700;2022-11-24T07:21:09;6.40;70.40
63013;DHT22;62113;45.624;11.700;2022-11-24T07:23:35;6.50;70.40
63013;DHT22;62113;45.624;11.700;2022-11-24T07:26:02;6.70;70.30
63013;DHT22;62113;45.624;11.700;2022-11-24T07:28:29;6.80;70.10
63013;DHT22;62113;45.624;11.700;2022-11-24T07:30:55;7.00;69.90
63013;DHT22;62113;45.624;11.700;2022-11-24T07:33:20;7.20;69.80
63013;DHT22;62113;45.624;11.700;2022-11-24T07:35:50;7.30;69.70
63013;DHT22;62113;45.624;11.700;2022-11-24T07:38:16;7.50;69.40
63013;DHT22;62113;45.624;11.700;2022-11-24T07:40:42;7.70;69.20
63013;DHT22;62113;45.624;11.700;2022-11-24T07:43:07;7.80;69.00
63013;DHT22;62113;45.624;11.700;2022-11-24T07:45:33;8.00;68.50
63013;DHT22;62113;45.624;11.700;2022-11-24T07:47:58;8.20;67.00
63013;DHT22;62113;45.624;11.700;2022-11-24T07:50:24;8.30;66.60
63013;DHT22;62113;45.624;11.700;2022-11-24T07:52:50;8.50;66.90
63013;DHT22;62113;45.624;11.700;2022-11-24T07:55:15;8.50;67.20
63013;DHT22;62113;45.624;11.700;2022-11-24T07:57:41;8.70;67.30
63013;DHT22;62113;45.624;11.700;2022-11-24T08:00:07;8.90;67.10
63013;DHT22;62113;45.624;11.700;2022-11-24T08:02:33;9.00;67.00
63013;DHT22;62113;45.624;11.700;2022-11-24T08:04:59;9.20;66.60
63013;DHT22;62113;45.624;11.700;2022-11-24T08:07:24;9.30;66.40
63013;DHT22;62113;45.624;11.700;2022-11-24T08:09:50;9.50;66.10
63013;DHT22;62113;45.624;11.700;2022-11-24T08:12:17;9.70;65.70
63013;DHT22;62113;45.624;11.700;2022-11-24T08:14:47;9.80;65.50
63013;DHT22;62113;45.624;11.700;2022-11-24T08:17:13;10.10;65.40
63013;DHT22;62113;45.624;11.700;2022-11-24T08:19:39;10.20;64.90
63013;DHT22;62113;45.624;11.700;2022-11-24T08:22:04;10.40;64.00
63013;DHT22;62113;45.624;11.700;2022-11-24T08:24:30;10.60;63.80
63013;DHT22;62113;45.624;11.700;2022-11-24T08:26:56;10.70;63.50
63013;DHT22;62113;45.624;11.700;2022-11-24T08:29:21;10.90;63.40
63013;DHT22;62113;45.624;11.700;2022-11-24T08:31:47;11.00;63.10
63013;DHT22;62113;45.624;11.700;2022-11-24T08:34:12;11.10;62.90
63013;DHT22;62113;45.624;11.700;2022-11-24T08:36:38;11.20;62.30
63013;DHT22;62113;45.624;11.700;2022-11-24T08:39:04;11.20;62.10
63013;DHT22;62113;45.624;11.700;2022-11-24T08:41:30;11.20;62.30
63013;DHT22;62113;45.624;11.700;2022-11-24T08:43:56;11.20;62.70
63013;DHT22;62113;45.624;11.700;2022-11-24T08:46:21;11.30;62.90
63013;DHT22;62113;45.624;11.700;2022-11-24T08:48:49;11.40;63.00
63013;DHT22;62113;45.624;11.700;2022-11-24T08:51:21;11.60;63.00
63013;DHT22;62113;45.624;11.700;2022-11-24T08:53:46;11.70;62.20
63013;DHT22;62113;45.624;11.700;2022-11-24T08:56:13;11.90;61.70
63013;DHT22;62113;45.624;11.700;2022-11-24T08:58:39;12.00;61.90
63013;DHT22;62113;45.624;11.700;2022-11-24T09:01:11;12.20;61.60
63013;DHT22;62113;45.624;11.700;2022-11-24T09:03:37;12.20;61.40
63013;DHT22;62113;45.624;11.700;2022-11-24T09:06:04;12.50;60.90
63013;DHT22;62113;45.624;11.700;2022-11-24T09:08:30;12.70;61.00
63013;DHT22;62113;45.624;11.700;2022-11-24T09:11:00;13.10;60.80
63013;DHT22;62113;45.624;11.700;2022-11-24T09:13:26;13.50;59.80
63013;DHT22;62113;45.624;11.700;2022-11-24T09:15:52;13.70;59.00
63013;DHT22;62113;45.624;11.700;2022-11-24T09:18:18;14.20;58.80
63013;DHT22;62113;45.624;11.700;2022-11-24T09:20:43;14.70;57.80
63013;DHT22;62113;45.624;11.700;2022-11-24T09:23:09;15.30;57.20
63013;DHT22;62113;45.624;11.700;2022-11-24T09:25:35;15.80;54.10
63013;DHT22;62113;45.624;11.700;2022-11-24T09:28:00;16.20;53.70
63013;DHT22;62113;45.624;11.700;2022-11-24T09:30:26;16.70;53.30
63013;DHT22;62113;45.624;11.700;2022-11-24T09:32:55;17.60;51.00
63013;DHT22;62113;45.624;11.700;2022-11-24T09:35:20;19.00;50.70
63013;DHT22;62113;45.624;11.700;2022-11-24T09:37:46;20.60;45.60
63013;DHT22;62113;45.624;11.700;2022-11-24T09:40:13;22.00;44.10
63013;DHT22;62113;45.624;11.700;2022-11-24T09:48:39;25.80;36.40
63013;DHT22;62113;45.624;11.700;2022-11-24T09:51:12;27.10;32.90
63013;DHT22;62113;45.624;11.700;2022-11-24T09:53:52;27.90;31.80
63013;DHT22;62113;45.624;11.700;2022-11-24T09:56:19;28.70;31.80
63013;DHT22;62113;45.624;11.700;2022-11-24T09:58:58;29.30;30.80
63013;DHT22;62113;45.624;11.700;2022-11-24T10:01:35;29.80;28.60
63013;DHT22;62113;45.624;11.700;2022-11-24T10:04:02;30.30;28.30
63013;DHT22;62113;45.624;11.700;2022-11-24T10:06:43;30.70;29.20
63013;DHT22;62113;45.624;11.700;2022-11-24T10:14:45;31.30;27.00
63013;DHT22;62113;45.624;11.700;2022-11-24T10:20:20;30.60;26.90
63013;DHT22;62113;45.624;11.700;2022-11-24T10:26:04;28.50;28.10
63013;DHT22;62113;45.624;11.700;2022-11-24T10:28:55;27.20;29.60
63013;DHT22;62113;45.624;11.700;2022-11-24T10:31:34;25.90;31.10
63013;DHT22;62113;45.624;11.700;2022-11-24T10:34:08;25.00;32.90
63013;DHT22;62113;45.624;11.700;2022-11-24T10:36:45;24.00;33.80
63013;DHT22;62113;45.624;11.700;2022-11-24T10:42:17;22.40;36.80
63013;DHT22;62113;45.624;11.700;2022-11-24T10:44:43;21.80;38.00
63013;DHT22;62113;45.624;11.700;2022-11-24T10:47:19;21.20;39.00
63013;DHT22;62113;45.624;11.700;2022-11-24T10:50:00;20.80;39.70
63013;DHT22;62113;45.624;11.700;2022-11-24T10:52:29;20.50;40.90
63013;DHT22;62113;45.624;11.700;2022-11-24T10:55:05;20.10;41.40
63013;DHT22;62113;45.624;11.700;2022-11-24T10:57:33;19.70;41.80
63013;DHT22;62113;45.624;11.700;2022-11-24T11:00:00;19.60;42.80
63013;DHT22;62113;45.624;11.700;2022-11-24T11:04:54;18.90;42.40
63013;DHT22;62113;45.624;11.700;2022-11-24T11:07:22;18.70;42.80
63013;DHT22;62113;45.624;11.700;2022-11-24T11:09:49;18.60;43.50
63013;DHT22;62113;45.624;11.700;2022-11-24T11:12:23;18.20;41.60
63013;DHT22;62113;45.624;11.700;2022-11-24T11:14:52;17.90;42.60
63013;DHT22;62113;45.624;11.700;2022-11-24T11:17:43;17.70;43.70
63013;DHT22;62113;45.624;11.700;2022-11-24T11:20:21;17.80;44.30
63013;DHT22;62113;45.624;11.700;2022-11-24T11:22:49;17.80;44.80
63013;DHT22;62113;45.624;11.700;2022-11-24T11:25:30;17.90;45.00
63013;DHT22;62113;45.624;11.700;2022-11-24T11:31:01;17.80;44.70
63013;DHT22;62113;45.624;11.700;2022-11-24T11:33:29;17.70;45.00
63013;DHT22;62113;45.624;11.700;2022-11-24T11:35:56;17.50;44.60
63013;DHT22;62113;45.624;11.700;2022-11-24T11:38:24;17.40;45.40
63013;DHT22;62113;45.624;11.700;2022-11-24T11:40:51;17.30;45.90
63013;DHT22;62113;45.624;11.700;2022-11-24T11:45:45;17.30;46.20
63013;DHT22;62113;45.624;11.700;2022-11-24T11:48:31;17.20;45.90
63013;DHT22;62113;45.624;11.700;2022-11-24T11:51:28;17.20;46.20
63013;DHT22;62113;45.624;11.700;2022-11-24T11:56:42;17.20;46.90
63013;DHT22;62113;45.624;11.700;2022-11-24T12:15:43;17.30;47.30
63013;DHT22;62113;45.624;11.700;2022-11-24T12:26:57;16.80;48.40
63013;DHT22;62113;45.624;11.700;2022-11-24T12:43:12;16.90;48.60
63013;DHT22;62113;45.624;11.700;2022-11-24T12:50:42;16.50;46.80
63013;DHT22;62113;45.624;11.700;2022-11-24T12:53:39;16.30;47.30
63013;DHT22;62113;45.624;11.700;2022-11-24T12:56:09;16.20;47.80
63013;DHT22;62113;45.624;11.700;2022-11-24T13:04:13;16.20;49.50
63013;DHT22;62113;45.624;11.700;2022-11-24T13:06:45;16.20;50.30
63013;DHT22;62113;45.624;11.700;2022-11-24T13:09:13;16.00;51.20
63013;DHT22;62113;45.624;11.700;2022-11-24T13:11:45;15.80;51.10
63013;DHT22;62113;45.624;11.700;2022-11-24T13:14:15;15.70;51.00
63013;DHT22;62113;45.624;11.700;2022-11-24T13:16:56;15.60;53.40
63013;DHT22;62113;45.624;11.700;2022-11-24T13:19:34;15.70;51.70
63013;DHT22;62113;45.624;11.700;2022-11-24T13:24:37;15.80;51.00
63013;DHT22;62113;45.624;11.700;2022-11-24T13:29:41;15.80;50.70
63013;DHT22;62113;45.624;11.700;2022-11-24T13:39:53;16.20;51.30
63013;DHT22;62113;45.624;11.700;2022-11-24T13:42:20;16.20;51.40
63013;DHT22;62113;45.624;11.700;2022-11-24T13:44:49;16.30;51.20
63013;DHT22;62113;45.624;11.700;2022-11-24T13:47:42;16.30;51.10
63013;DHT22;62113;45.624;11.700;2022-11-24T13:53:05;16.40;51.20
63013;DHT22;62113;45.624;11.700;2022-11-24T13:55:37;16.50;51.30
63013;DHT22;62113;45.624;11.700;2022-11-24T14:03:40;16.70;51.40
63013;DHT22;62113;45.624;11.700;2022-11-24T14:06:24;16.70;51.50
63013;DHT22;62113;45.624;11.700;2022-11-24T14:08:52;16.70;51.30
63013;DHT22;62113;45.624;11.700;2022-11-24T14:11:18;16.70;51.40
63013;DHT22;62113;45.624;11.700;2022-11-24T14:13:45;16.70;51.40
63013;DHT22;62113;45.624;11.700;2022-11-24T14:16:17;16.70;51.10
63013;DHT22;62113;45.624;11.700;2022-11-24T14:18:45;16.70;51.60
63013;DHT22;62113;45.624;11.700;2022-11-24T14:21:46;16.70;51.30
63013;DHT22;62113;45.624;11.700;2022-11-24T14:24:16;16.60;51.30
63013;DHT22;62113;45.624;11.700;2022-11-24T14:26:45;16.60;51.30
63013;DHT22;62113;45.624;11.700;2022-11-24T14:29:20;16.60;51.20
63013;DHT22;62113;45.624;11.700;2022-11-24T14:31:57;16.50;51.30
63013;DHT22;62113;45.624;11.700;2022-11-24T14:34:25;16.40;51.50
63013;DHT22;62113;45.624;11.700;2022-11-24T14:36:52;16.40;51.40
63013;DHT22;62113;45.624;11.700;2022-11-24T14:39:20;16.30;51.30
63013;DHT22;62113;45.624;11.700;2022-11-24T14:42:05;16.20;51.50
63013;DHT22;62113;45.624;11.700;2022-11-24T14:44:56;16.10;51.00
63013;DHT22;62113;45.624;11.700;2022-11-24T14:47:30;16.00;50.30
63013;DHT22;62113;45.624;11.700;2022-11-24T14:50:04;15.80;50.60
63013;DHT22;62113;45.624;11.700;2022-11-24T14:52:30;15.70;50.80
63013;DHT22;62113;45.624;11.700;2022-11-24T14:54:57;15.60;51.20
63013;DHT22;62113;45.624;11.700;2022-11-24T15:02:48;15.30;52.20
63013;DHT22;62113;45.624;11.700;2022-11-24T15:05:17;15.30;52.40
63013;DHT22;62113;45.624;11.700;2022-11-24T15:07:45;15.20;52.50
63013;DHT22;62113;45.624;11.700;2022-11-24T15:12:54;15.10;53.20
63013;DHT22;62113;45.624;11.700;2022-11-24T15:15:25;15.00;53.40
63013;DHT22;62113;45.624;11.700;2022-11-24T15:17:58;14.90;53.70
63013;DHT22;62113;45.624;11.700;2022-11-24T15:25:53;14.60;55.00
63013;DHT22;62113;45.624;11.700;2022-11-24T15:28:19;14.50;55.80
63013;DHT22;62113;45.624;11.700;2022-11-24T15:30:53;14.40;57.20
63013;DHT22;62113;45.624;11.700;2022-11-24T15:33:20;14.30;58.10
63013;DHT22;62113;45.624;11.700;2022-11-24T15:35:46;14.20;58.60
63013;DHT22;62113;45.624;11.700;2022-11-24T15:38:12;14.00;58.10
63013;DHT22;62113;45.624;11.700;2022-11-24T15:40:39;13.90;57.50
63013;DHT22;62113;45.624;11.700;2022-11-24T15:43:28;13.80;58.80
63013;DHT22;62113;45.624;11.700;2022-11-24T15:45:54;13.70;59.50
63013;DHT22;62113;45.624;11.700;2022-11-24T15:48:20;13.70;60.10
63013;DHT22;62113;45.624;11.700;2022-11-24T15:50:46;13.60;60.70
63013;DHT22;62113;45.624;11.700;2022-11-24T15:53:34;13.50;61.20
63013;DHT22;62113;45.624;11.700;2022-11-24T15:56:02;13.40;60.70
63013;DHT22;62113;45.624;11.700;2022-11-24T15:58:27;13.30;61.40
63013;DHT22;62113;45.624;11.700;2022-11-24T16:00:53;13.20;62.20
63013;DHT22;62113;45.624;11.700;2022-11-24T16:03:19;13.20;62.00
63013;DHT22;62113;45.624;11.700;2022-11-24T16:05:47;13.10;62.80
63013;DHT22;62113;45.624;11.700;2022-11-24T16:08:14;13.00;63.20
63013;DHT22;62113;45.624;11.700;2022-11-24T16:10:40;12.90;63.20
63013;DHT22;62113;45.624;11.700;2022-11-24T16:13:06;12.80;63.50
63013;DHT22;62113;45.624;11.700;2022-11-24T16:15:32;12.80;63.60
63013;DHT22;62113;45.624;11.700;2022-11-24T16:17:58;12.70;63.30
63013;DHT22;62113;45.624;11.700;2022-11-24T16:20:24;12.70;63.50
63013;DHT22;62113;45.624;11.700;2022-11-24T16:22:49;12.60;63.30
63013;DHT22;62113;45.624;11.700;2022-11-24T16:25:15;12.50;63.30
63013;DHT22;62113;45.624;11.700;2022-11-24T16:27:41;12.50;63.50
63013;DHT22;62113;45.624;11.700;2022-11-24T16:30:07;12.40;63.20
63013;DHT22;62113;45.624;11.700;2022-11-24T16:32:33;12.40;63.30
63013;DHT22;62113;45.624;11.700;2022-11-24T16:34:59;12.30;63.90
63013;DHT22;62113;45.624;11.700;2022-11-24T16:37:25;12.30;64.40
63013;DHT22;62113;45.624;11.700;2022-11-24T16:39:51;12.20;64.50
63013;DHT22;62113;45.624;11.700;2022-11-24T16:42:16;12.20;64.50
63013;DHT22;62113;45.624;11.700;2022-11-24T16:44:42;12.10;64.60
63013;DHT22;62113;45.624;11.700;2022-11-24T16:47:07;12.00;64.60
63013;DHT22;62113;45.624;11.700;2022-11-24T16:49:33;11.90;64.80
63013;DHT22;62113;45.624;11.700;2022-11-24T16:51:59;11.90;64.60
63013;DHT22;62113;45.624;11.700;2022-11-24T16:54:24;11.80;64.60
63013;DHT22;62113;45.624;11.700;2022-11-24T16:56:50;11.80;64.90
63013;DHT22;62113;45.624;11.700;2022-11-24T16:59:16;11.70;65.40
63013;DHT22;62113;45.624;11.700;2022-11-24T17:01:42;11.70;65.30
63013;DHT22;62113;45.624;11.700;2022-11-24T17:04:11;11.70;65.40
63013;DHT22;62113;45.624;11.700;2022-11-24T17:06:36;11.60;65.30
63013;DHT22;62113;45.624;11.700;2022-11-24T17:09:02;11.60;65.40
63013;DHT22;62113;45.624;11.700;2022-11-24T17:11:28;11.60;64.90
63013;DHT22;62113;45.624;11.700;2022-11-24T17:13:55;11.60;65.00
63013;DHT22;62113;45.624;11.700;2022-11-24T17:16:23;11.70;65.60
63013;DHT22;62113;45.624;11.700;2022-11-24T17:18:49;11.70;65.90
63013;DHT22;62113;45.624;11.700;2022-11-24T17:21:17;11.50;65.60
63013;DHT22;62113;45.624;11.700;2022-11-24T17:23:43;11.50;65.80
63013;DHT22;62113;45.624;11.700;2022-11-24T17:26:14;11.50;65.80
63013;DHT22;62113;45.624;11.700;2022-11-24T17:28:40;11.40;66.00
63013;DHT22;62113;45.624;11.700;2022-11-24T17:33:38;11.30;65.90